Latest Weather Observations for Salmon Gums RS

IDW60801

Issued at 4:05 pm WST Friday 24 October 2014 (issued every 30 minutes, with the page automatically refreshed every 10 minutes)

About weather observations | Map of weather stations | Latest weather observations for WA | Other Formats
Station Details ID: 012071 Name: SALMON GUMS RES.STN. Lat: -32.99 Lon: 121.62 Height: 249.0 m
Data from the previous 72 hours. | See also: Recent months at Salmon Gums RS
Date/Time
WST
Temp
°C
App
Temp
°C
Dew
Point
Rel
Hum
%
Delta-T
°C
Wind Press
QNH
hPa
Press
MSL
hPa
Rain
since 9 am
mm
Dir
 
Spd
km/h
Gust
km/h
Spd
kts
Gust
kts
24/04:00pm 24.1 22.6 10.7 43 7.5 NE 9 17 5 9 - - 0.2
24/03:30pm 24.5 22.7 10.8 42 7.7 NE 11 17 6 9 - - 0.2
24/03:00pm 24.9 23.0 10.4 40 8.1 N 11 19 6 10 - - 0.2
24/02:30pm 25.3 23.8 10.7 40 8.3 NW 9 17 5 9 - - 0.2
24/02:00pm 23.4 22.3 9.8 42 7.5 WNW 6 11 3 6 - - 0.2
24/01:30pm 23.7 23.4 11.4 46 7.0 S 4 7 2 4 - - 0.2
24/01:00pm 22.7 22.5 11.7 49 6.2 SE 4 9 2 5 - - 0.2
24/12:30pm 22.5 21.3 11.6 50 6.2 N 9 13 5 7 - - 0.2
24/12:00pm 21.4 20.7 12.0 55 5.3 N 7 17 4 9 - - 0.2
24/11:30am 20.8 20.1 13.3 62 4.3 ENE 9 13 5 7 - - 0.2
24/11:00am 20.0 20.6 13.2 65 3.9 ESE 2 4 1 2 - - 0.2
24/10:30am 19.1 18.7 13.1 68 3.4 NNE 7 13 4 7 - - 0.2
24/10:00am 18.5 19.1 13.1 71 3.1 E 2 6 1 3 - - 0.2
24/09:30am 18.1 19.1 14.4 79 2.2 WNW 2 6 1 3 - - 0.2
24/09:00am 16.6 18.2 15.0 90 0.9 CALM 0 0 0 0 - - 0.8
24/08:30am 15.6 15.8 14.3 92 0.7 ESE 6 7 3 4 - - 0.8
24/08:00am 15.1 15.0 13.8 92 0.7 S 7 11 4 6 - - 0.6
24/07:30am 14.9 14.8 13.4 91 0.8 S 6 9 3 5 - - 0.4
24/07:00am 15.1 15.5 13.6 91 0.8 S 4 6 2 3 - - 0.0
24/06:30am 15.2 16.4 13.7 91 0.9 CALM 0 0 0 0 - - 0.0
24/06:00am 14.8 15.5 13.3 91 0.8 SW 2 4 1 2 - - 0.0
24/05:30am 14.8 15.8 13.2 90 0.9 CALM 0 0 0 0 - - 0.0
24/05:00am 14.7 15.7 13.1 90 0.9 CALM 0 0 0 0 - - 0.0
24/04:30am 14.4 14.5 12.8 90 0.9 SSW 4 6 2 3 - - 0.0
24/04:00am 14.8 14.5 12.8 88 1.1 S 6 9 3 5 - - 0.0
24/03:30am 15.1 14.8 13.3 89 1.0 SSW 7 13 4 7 - - 0.0
24/03:00am 15.2 15.1 13.2 88 1.1 SW 6 9 3 5 - - 0.0
24/02:30am 15.3 14.6 13.3 88 1.1 SW 9 11 5 6 - - 0.0
24/02:00am 15.4 14.7 13.2 87 1.2 SW 9 13 5 7 - - 0.0
24/01:30am 15.8 15.2 13.5 86 1.3 SW 9 13 5 7 - - 0.0
24/01:00am 15.9 15.7 13.6 86 1.3 SW 7 13 4 7 - - 0.0
24/12:30am 16.0 15.8 13.5 85 1.4 SW 7 13 4 7 - - 0.0
24/12:00am 16.3 15.4 13.6 84 1.5 SW 11 19 6 10 - - 0.0
 
Date/Time
WST
Temp
°C
App
Temp
°C
Dew
Point
Rel
Hum
%
Delta-T
°C
Wind Press
QNH
hPa
Press
MSL
hPa
Rain
since 9 am
mm
Dir
 
Spd
km/h
Gust
km/h
Spd
kts
Gust
kts
23/11:30pm 16.3 15.4 13.6 84 1.5 SSW 11 20 6 11 - - 0.0
23/11:00pm 16.6 16.1 13.9 84 1.5 SSW 9 13 5 7 - - 0.0
23/10:30pm 16.7 16.2 13.8 83 1.7 SSW 9 15 5 8 - - 0.0
23/10:00pm 16.7 15.1 13.8 83 1.7 SSW 15 24 8 13 - - 0.0
23/09:30pm 16.6 14.8 13.3 81 1.9 SSW 15 28 8 15 - - 0.0
23/09:00pm 16.8 15.3 14.1 84 1.6 SSW 15 26 8 14 - - 0.0
23/08:30pm 16.2 15.3 12.7 80 2.0 S 9 11 5 6 - - 0.0
23/08:00pm 17.3 14.9 12.8 75 2.5 SSW 17 22 9 12 - - 0.0
23/07:30pm 18.4 15.4 11.9 66 3.6 S 19 26 10 14 - - 0.0
23/07:00pm 20.2 17.0 11.4 57 4.9 S 19 26 10 14 - - 0.0
23/06:30pm 21.3 19.3 7.2 40 7.3 W 7 11 4 6 - - 0.0
23/06:00pm 22.9 19.8 7.1 36 8.3 W 13 22 7 12 - - 0.0
23/05:30pm 23.3 19.4 7.0 35 8.5 WSW 17 28 9 15 - - 0.0
23/05:00pm 24.3 20.0 7.0 33 9.1 W 19 32 10 17 - - 0.0
23/04:30pm 24.0 19.4 6.7 33 9.1 W 20 33 11 18 - - 0.0
23/04:00pm 24.4 19.5 7.1 33 9.1 W 22 37 12 20 - - 0.0
23/03:30pm 25.6 20.8 7.2 31 9.8 W 22 39 12 21 - - 0.0
23/03:00pm 25.2 19.4 6.4 30 9.9 WNW 26 37 14 20 - - 0.0
23/02:30pm 25.2 19.9 6.9 31 9.7 W 24 39 13 21 - - 0.0
23/02:00pm 25.4 19.9 7.5 32 9.6 W 26 43 14 23 - - 0.0
23/01:30pm 24.8 20.1 7.9 34 9.1 WNW 22 37 12 20 - - 0.0
23/01:00pm 24.6 20.5 8.5 36 8.7 WNW 20 35 11 19 - - 0.0
23/12:30pm 25.0 20.9 8.5 35 9.0 WNW 20 32 11 17 - - 0.0
23/12:00pm 24.2 19.1 7.8 35 8.8 WNW 24 39 13 21 - - 0.0
23/11:30am 24.2 19.3 8.6 37 8.5 WNW 24 39 13 21 - - 0.0
23/11:00am 23.5 19.1 8.8 39 8.0 WNW 22 41 12 22 - - 0.0
23/10:30am 23.0 18.1 8.3 39 7.9 WNW 24 41 13 22 - - 0.0
23/10:00am 22.8 18.0 10.3 45 6.9 NW 26 41 14 22 - - 0.0
23/09:30am 21.9 17.6 10.7 49 6.2 NW 24 35 13 19 - - 0.0
23/09:00am 21.1 16.7 10.3 50 5.9 WNW 24 39 13 21 - - 0.2
23/08:30am 21.1 17.2 10.9 52 5.7 WNW 22 35 12 19 - - 0.2
23/08:00am 20.2 16.5 11.4 57 4.9 W 22 37 12 20 - - 0.2
23/07:30am 19.0 16.0 11.8 63 4.0 WNW 19 33 10 18 - - 0.2
23/07:00am 17.2 14.3 12.3 73 2.7 NW 19 32 10 17 - - 0.2
23/06:30am 15.8 13.3 12.4 80 1.9 WNW 17 28 9 15 - - 0.2
23/06:00am 15.9 13.1 12.6 81 1.8 WNW 19 30 10 16 - - 0.2
23/05:30am 15.7 13.3 12.8 83 1.6 WNW 17 28 9 15 - - 0.2
23/05:00am 15.6 13.3 13.1 85 1.4 WNW 17 28 9 15 - - 0.2
23/04:30am 15.5 14.1 13.5 88 1.1 WNW 13 22 7 12 - - 0.2
23/04:00am 12.1 11.6 10.7 91 0.7 NW 4 6 2 3 - - 0.2
23/03:30am 12.6 12.5 10.8 89 1.0 NE 2 6 1 3 - - 0.2
23/03:00am 13.9 14.1 11.9 88 1.1 ENE 2 9 1 5 - - 0.2
23/02:30am 14.5 13.3 12.9 90 0.9 E 11 17 6 9 - - 0.2
23/02:00am 14.6 14.6 12.5 87 1.2 SE 4 6 2 3 - - 0.2
23/01:30am 14.8 14.7 12.1 84 1.5 SE 4 9 2 5 - - 0.2
23/01:00am 16.3 16.0 12.8 80 2.0 SE 6 13 3 7 - - 0.2
23/12:30am 17.7 16.2 13.2 75 2.6 W 13 19 7 10 - - 0.2
23/12:00am 17.9 16.0 13.0 73 2.8 ENE 15 24 8 13 - - 0.2
 
Date/Time
WST
Temp
°C
App
Temp
°C
Dew
Point
Rel
Hum
%
Delta-T
°C
Wind Press
QNH
hPa
Press
MSL
hPa
Rain
since 9 am
mm
Dir
 
Spd
km/h
Gust
km/h
Spd
kts
Gust
kts
22/11:30pm 17.6 15.8 13.3 76 2.5 ENE 15 24 8 13 - - 0.2
22/11:00pm 17.9 15.2 13.4 75 2.6 ENE 20 33 11 18 - - 0.2
22/10:30pm 17.9 15.2 13.6 76 2.5 ENE 20 30 11 16 - - 0.2
22/10:00pm 18.4 15.0 13.7 74 2.7 ENE 24 33 13 18 - - 0.2
22/09:30pm 19.5 16.2 13.9 70 3.3 E 24 37 13 20 - - 0.2
22/09:00pm 20.5 17.8 13.5 64 4.1 ENE 20 26 11 14 - - 0.2
22/08:30pm 20.5 18.8 13.7 65 4.0 E 15 20 8 11 - - 0.2
22/08:00pm 20.8 19.1 13.7 64 4.1 E 15 24 8 13 - - 0.2
22/07:30pm 21.3 19.6 13.7 62 4.4 ENE 15 22 8 12 - - 0.2
22/07:00pm 21.8 19.8 13.9 61 4.6 NE 17 24 9 13 - - 0.2
22/06:30pm 22.3 20.4 14.2 60 4.8 ENE 17 26 9 14 - - 0.2
22/06:00pm 23.0 20.6 13.8 56 5.4 E 19 28 10 15 - - 0.2
22/05:30pm 23.8 21.1 13.6 52 6.0 ENE 20 30 11 16 - - 0.2
22/05:00pm 24.4 21.3 13.3 50 6.5 ENE 22 32 12 17 - - 0.2
22/04:30pm 25.1 22.4 13.0 47 7.1 ENE 19 30 10 16 - - 0.2
22/04:00pm 25.8 22.4 12.6 44 7.7 ENE 22 33 12 18 - - 0.2
22/03:30pm 26.4 23.5 13.9 46 7.5 NE 22 37 12 20 - - 0.2
22/03:00pm 25.9 23.6 13.1 45 7.6 NNE 17 26 9 14 - - 0.2
22/02:30pm 25.5 22.5 13.7 48 7.0 ENE 22 35 12 19 - - 0.2
22/02:00pm 25.6 23.1 14.1 49 6.9 NE 20 32 11 17 - - 0.2
22/01:30pm 25.5 23.4 13.7 48 7.0 ENE 17 28 9 15 - - 0.2
22/01:00pm 24.8 23.1 14.6 53 6.1 ENE 17 35 9 19 - - 0.2
22/12:30pm 23.6 22.0 14.0 55 5.7 ENE 15 24 8 13 - - 0.2
22/12:00pm 22.9 21.8 14.2 58 5.2 NE 13 24 7 13 - - 0.2
22/11:30am 21.2 19.1 13.6 62 4.4 E 17 24 9 13 - - 0.2
22/11:00am 20.5 18.0 13.5 64 4.1 NE 19 30 10 16 - - 0.2
22/10:30am 19.4 17.0 13.8 70 3.2 NE 19 30 10 16 - - 0.2
22/10:00am 18.3 16.0 14.0 76 2.5 ENE 19 26 10 14 - - 0.2
22/09:30am 15.7 12.9 12.5 81 1.8 ENE 19 28 10 15 - - 0.2
22/09:00am 15.1 13.2 13.0 87 1.2 NE 15 20 8 11 - - 0.0
22/08:30am 14.4 12.4 12.8 90 0.9 ENE 15 20 8 11 - - 0.0
22/08:00am 13.9 11.9 12.6 92 0.7 ENE 15 20 8 11 - - 0.0
22/07:30am 13.4 11.0 12.5 94 0.5 NE 17 24 9 13 - - 0.0
22/07:00am 13.1 10.6 12.3 95 0.4 ENE 17 20 9 11 - - 0.0
22/06:30am 12.7 11.2 11.9 95 0.4 NE 11 19 6 10 - - 0.0
22/06:00am 12.6 9.9 11.8 95 0.4 ENE 17 22 9 12 - - 0.0
22/05:30am 12.2 10.9 11.4 95 0.4 E 9 13 5 7 - - 0.0
22/05:00am 12.0 9.9 11.2 95 0.4 E 13 19 7 10 - - 0.0
22/04:30am 11.9 8.7 11.1 95 0.4 E 19 26 10 14 - - 0.0
22/04:00am 11.7 9.9 10.9 95 0.4 E 11 17 6 9 - - 0.0
22/03:30am 11.3 9.4 10.5 95 0.4 E 11 17 6 9 - - 0.0
22/03:00am 11.3 9.0 10.4 94 0.5 E 13 17 7 9 - - 0.0
22/02:30am 11.1 9.5 10.2 94 0.5 E 9 13 5 7 - - 0.0
22/02:00am 11.2 10.0 10.3 94 0.5 E 7 13 4 7 - - 0.0
22/01:30am 11.2 10.0 10.3 94 0.5 E 7 9 4 5 - - 0.0
22/01:00am 11.4 9.9 10.5 94 0.5 E 9 11 5 6 - - 0.0
22/12:30am 11.7 10.6 10.6 93 0.6 ESE 7 11 4 6 - - 0.0
22/12:00am 11.3 10.1 10.2 93 0.6 E 7 9 4 5 - - 0.0
 
Date/Time
WST
Temp
°C
App
Temp
°C
Dew
Point
Rel
Hum
%
Delta-T
°C
Wind Press
QNH
hPa
Press
MSL
hPa
Rain
since 9 am
mm
Dir
 
Spd
km/h
Gust
km/h
Spd
kts
Gust
kts
21/11:30pm 12.0 11.0 10.9 93 0.6 ESE 7 11 4 6 - - 0.0
21/11:00pm 12.0 10.6 10.9 93 0.6 ESE 9 13 5 7 - - 0.0
21/10:30pm 12.1 11.0 10.8 92 0.7 ESE 7 11 4 6 - - 0.0
21/10:00pm 12.4 11.1 11.1 92 0.7 SE 9 11 5 6 - - 0.0
21/09:30pm 12.8 11.5 11.4 91 0.7 SE 9 13 5 7 - - 0.0
21/09:00pm 13.2 12.1 11.8 91 0.8 SE 9 13 5 7 - - 0.0
21/08:30pm 13.5 12.3 11.7 89 1.0 SE 9 15 5 8 - - 0.0
21/08:00pm 13.9 12.4 11.8 87 1.1 SE 11 15 6 8 - - 0.0
21/07:30pm 14.5 13.0 12.0 85 1.4 SSE 11 17 6 9 - - 0.0
21/07:00pm 15.0 13.6 12.1 83 1.6 SSE 11 17 6 9 - - 0.0
21/06:30pm 15.6 14.2 12.2 80 1.9 S 11 17 6 9 - - 0.0
21/06:00pm 16.7 14.6 12.5 76 2.3 SSE 15 24 8 13 - - 0.0
21/05:30pm 17.4 15.0 12.5 73 2.7 S 17 24 9 13 - - 0.0
21/05:00pm 19.1 16.4 12.8 67 3.6 S 19 26 10 14 - - 0.0
21/04:30pm 20.1 17.3 13.1 64 4.0 S 20 26 11 14 - - 0.0

Other Formats:

Comma delimited format used in spreadsheet applications
http://www.bom.gov.au/fwo/IDW60801/IDW60801.95639.axf

JavaScript Object Notation format (JSON) in row-major order
http://www.bom.gov.au/fwo/IDW60801/IDW60801.95639.json